This is the latest recevied weather packets stored in our database for station/object K9JVA. If no packets are shown the sender has not sent any weather packets the latest 10 day(s).
| Time | Temp. | Humidity | Pressure | Rain* | Wind** | Luminosity | Snow |
|---|---|---|---|---|---|---|---|
| 1777739018 | 16.67° C | 47% | 1017.8 hPa | 0 mm | - | - | - |
| 1777738568 | 16.67° C | 46% | 1017.9 hPa | 0 mm | - | - | - |
| 1777736559 | 15.56° C | 48% | 1018 hPa | 0 mm | - | - | - |
| 1777736258 | 15° C | 47% | 1018.1 hPa | 0 mm | - | - | - |
| 1777735509 | 15° C | 48% | 1018.2 hPa | 0 mm | - | - | - |
| 1777732840 | 12.78° C | 55% | 1018.1 hPa | 0 mm | - | - | - |
| 1777732521 | 11.11° C | 55% | 1018.3 hPa | 0 mm | - | - | - |
| 1777728821 | 10° C | 61% | 1018.4 hPa | 0 mm | - | - | - |
| 1777728222 | 10° C | 63% | 1018.2 hPa | 0 mm | - | - | - |
| 1777727562 | 10° C | 63% | 1018 hPa | 0 mm | - | - | - |
| 1777725305 | 7.78° C | 74% | 1018.2 hPa | 0 mm | - | - | - |
| 1777723603 | 6.11° C | 77% | 1018.1 hPa | 0 mm | - | - | - |
| 1777721943 | 3.33° C | 88% | 1017.8 hPa | 0 mm | - | - | - |
| 1777719884 | 2.78° C | 89% | 1017.5 hPa | 0 mm | - | - | - |
| 1777719584 | 2.78° C | 89% | 1017.6 hPa | 0 mm | - | - | - |
| 1777718686 | 2.78° C | 90% | 1017.7 hPa | 0 mm | - | - | - |
| 1777718385 | 2.22° C | 89% | 1017.6 hPa | 0 mm | - | - | - |
| 1777714307 | 1.67° C | 88% | 1017.5 hPa | 0 mm | - | - | - |
| 1777712629 | 2.22° C | 87% | 1017.6 hPa | 0 mm | - | - | - |
| 1777709748 | 2.78° C | 86% | 1017.6 hPa | 0 mm | - | - | - |
| 1777709446 | 2.78° C | 86% | 1017.4 hPa | 0 mm | - | - | - |
| 1777707734 | 2.78° C | 87% | 1017.2 hPa | 0 mm | - | - | - |
| 1777706989 | 2.78° C | 87% | 1017.1 hPa | 0 mm | - | - | - |
| 1777705790 | 3.33° C | 88% | 1017.1 hPa | 0 mm | - | - | - |
| 1777705430 | 3.33° C | 88% | 1017.1 hPa | 0 mm | - | - | - |
* Rain since midnight (hover to see other rain measurements)
** Current wind speed in m/s (hover to see current wind gust speed)